Time;durP1;ratioP1;P1;durP2;ratioP2;P2;SDS_P1;SDS_P2;PMS_P1;PMS_P2;Temp;Humidity;BMP_temperature;BMP_pressure;BME280_temperature;BME280_humidity;BME280_pressure;Samples;Min_cycle;Max_cycle;Signal;HPM_P1;HPM_P2
2022/04/04 00:02:03;;;;;;;4.90;1.70;;;3.20;99.90;;;;;;4970972;28;20034;-82
2022/04/04 00:04:29;;;;;;;2.20;1.35;;;3.20;99.90;;;;;;4972053;28;20051;-82
2022/04/04 00:06:55;;;;;;;2.88;1.55;;;3.20;99.90;;;;;;4987601;28;20561;-81
2022/04/04 00:09:21;;;;;;;3.55;1.13;;;3.20;99.90;;;;;;4971157;28;20481;-76
2022/04/04 00:11:47;;;;;;;11.88;2.40;;;3.20;99.90;;;;;;4970674;28;20094;-79
2022/04/04 00:14:14;;;;;;;8.75;3.10;;;3.20;99.90;;;;;;4970199;28;20018;-83
2022/04/04 00:16:40;;;;;;;3.88;1.73;;;3.20;99.90;;;;;;4971016;28;20479;-82
2022/04/04 00:19:09;;;;;;;3.42;1.52;;;3.30;99.90;;;;;;4970390;28;20493;-83
2022/04/04 00:21:44;;;;;;;5.63;1.98;;;3.20;99.90;;;;;;4981656;28;20050;-81
2022/04/04 00:24:13;;;;;;;2.13;1.05;;;3.20;99.90;;;;;;4968712;28;20046;-81
2022/04/04 00:26:39;;;;;;;2.90;1.65;;;3.20;99.90;;;;;;4962860;28;20110;-82
2022/04/04 00:29:06;;;;;;;5.20;1.40;;;3.20;99.90;;;;;;4970815;28;20034;-77
2022/04/04 00:31:38;;;;;;;8.13;1.08;;;3.20;99.90;;;;;;4970035;28;20030;-82
2022/04/04 00:34:07;;;;;;;2.20;1.17;;;3.20;99.90;;;;;;4969988;28;20523;-78
2022/04/04 00:36:34;;;;;;;2.95;1.38;;;3.20;99.90;;;;;;4987896;28;20058;-79
2022/04/04 00:39:06;;;;;;;1.27;0.77;;;3.20;99.90;;;;;;4969984;28;20034;-80
2022/04/04 00:41:32;;;;;;;18.95;1.35;;;3.20;99.90;;;;;;4970001;28;20030;-79
2022/04/04 00:43:59;;;;;;;2.30;1.15;;;3.20;99.90;;;;;;4986457;28;20066;-79
2022/04/04 00:46:28;;;;;;;4.03;1.20;;;3.20;99.90;;;;;;4968859;28;20022;-80
2022/04/04 00:48:58;;;;;;;2.53;1.30;;;3.20;99.90;;;;;;4986900;28;20494;-80
2022/04/04 00:51:28;;;;;;;3.13;1.02;;;3.20;99.90;;;;;;4986970;28;20034;-81
2022/04/04 00:53:57;;;;;;;4.10;1.08;;;3.20;99.90;;;;;;4986953;28;20053;-80
2022/04/04 00:56:26;;;;;;;7.05;1.52;;;3.20;99.90;;;;;;4986291;28;20019;-79
2022/04/04 00:58:52;;;;;;;3.25;1.50;;;3.20;99.90;;;;;;4969626;28;20475;-76
2022/04/04 01:01:18;;;;;;;4.32;1.27;;;3.30;99.90;;;;;;4986806;28;20038;-79
2022/04/04 01:03:44;;;;;;;2.22;1.17;;;3.20;99.90;;;;;;4968759;28;20039;-81
2022/04/04 01:06:10;;;;;;;1.88;0.80;;;3.20;99.90;;;;;;4986982;28;20083;-82
2022/04/04 01:08:43;;;;;;;2.08;1.10;;;3.20;99.90;;;;;;4986139;28;20057;-81
2022/04/04 01:11:11;;;;;;;4.03;1.23;;;3.20;99.90;;;;;;4968103;28;20037;-80
2022/04/04 01:13:50;;;;;;;6.50;1.63;;;3.20;99.90;;;;;;4987162;28;20057;-79
2022/04/04 01:16:23;;;;;;;6.03;1.30;;;3.20;99.90;;;;;;4985712;28;20518;-82
2022/04/04 01:18:50;;;;;;;2.08;1.23;;;3.20;99.90;;;;;;4968899;28;20027;-78
2022/04/04 01:21:20;;;;;;;2.95;1.27;;;3.20;99.90;;;;;;4969408;28;20383;-79
2022/04/04 01:23:50;;;;;;;5.05;1.95;;;3.20;99.90;;;;;;4967926;28;20042;-84
2022/04/04 01:26:19;;;;;;;7.43;1.30;;;3.20;99.90;;;;;;4964333;28;20090;-81
2022/04/04 01:28:45;;;;;;;2.03;1.35;;;3.20;99.90;;;;;;4949932;28;20027;-76
2022/04/04 01:31:15;;;;;;;2.00;1.20;;;3.20;99.90;;;;;;4966184;28;20037;-79
2022/04/04 01:33:47;;;;;;;2.83;1.42;;;3.30;99.90;;;;;;4967028;28;20051;-79
2022/04/04 01:36:13;;;;;;;2.45;1.38;;;3.20;99.90;;;;;;4948644;29;20039;-75
2022/04/04 01:38:51;;;;;;;4.15;1.70;;;3.20;99.90;;;;;;4965680;28;20030;-79
2022/04/04 01:41:22;;;;;;;6.60;1.73;;;3.20;99.90;;;;;;4956274;28;20047;-79
2022/04/04 01:43:49;;;;;;;7.15;1.35;;;3.20;99.90;;;;;;4949026;28;20043;-78
2022/04/04 01:46:29;;;;;;;3.47;1.23;;;3.20;99.90;;;;;;4966802;28;20035;-84
2022/04/04 01:48:59;;;;;;;11.38;1.55;;;3.20;99.90;;;;;;4967139;28;20888;-82
2022/04/04 01:51:27;;;;;;;3.13;1.48;;;3.20;99.90;;;;;;4966895;28;20464;-78
2022/04/04 01:53:53;;;;;;;2.22;1.50;;;3.20;99.90;;;;;;4949548;28;20034;-84
2022/04/04 01:56:22;;;;;;;4.85;2.00;;;3.20;99.90;;;;;;4967267;28;20031;-82
2022/04/04 01:59:01;;;;;;;5.57;1.63;;;3.30;99.90;;;;;;4949033;28;20038;-77
2022/04/04 02:01:28;;;;;;;3.20;1.38;;;3.30;99.90;;;;;;4965305;28;20035;-79
2022/04/04 02:04:00;;;;;;;18.48;1.40;;;3.30;99.90;;;;;;4948991;28;20035;-81
2022/04/04 02:06:28;;;;;;;1.60;0.88;;;3.30;99.90;;;;;;4948637;28;20027;-75
2022/04/04 02:09:01;;;;;;;2.53;1.48;;;3.30;99.90;;;;;;4949264;28;20054;-79
2022/04/04 02:11:28;;;;;;;1.70;1.10;;;3.30;99.90;;;;;;4966600;28;20031;-78
2022/04/04 02:13:58;;;;;;;4.10;2.08;;;3.30;99.90;;;;;;4965582;28;20031;-78
2022/04/04 02:16:26;;;;;;;3.08;1.63;;;3.30;99.90;;;;;;4966459;28;20407;-74
2022/04/04 02:18:51;;;;;;;4.28;1.98;;;3.30;99.90;;;;;;4966214;28;20027;-77
2022/04/04 02:21:21;;;;;;;9.93;1.77;;;3.40;99.90;;;;;;4948660;28;20063;-83
2022/04/04 02:23:47;;;;;;;3.00;1.35;;;3.40;99.90;;;;;;4953200;28;20032;-78
2022/04/04 02:26:14;;;;;;;3.45;1.85;;;3.30;99.90;;;;;;4971718;28;20110;-79
2022/04/04 02:28:50;;;;;;;3.97;1.35;;;3.40;99.90;;;;;;4970431;28;20023;-78
2022/04/04 02:31:26;;;;;;;2.97;1.25;;;3.40;99.90;;;;;;4989628;28;20034;-78
2022/04/04 02:33:57;;;;;;;1.55;1.23;;;3.30;99.90;;;;;;4989682;28;20038;-78
2022/04/04 02:36:27;;;;;;;1.80;1.08;;;3.30;99.90;;;;;;4988810;28;20059;-79
2022/04/04 02:39:04;;;;;;;1.73;1.13;;;3.30;99.90;;;;;;4989375;28;20031;-79
2022/04/04 02:41:34;;;;;;;2.33;1.35;;;3.30;99.90;;;;;;4989670;28;20054;-80
2022/04/04 02:44:03;;;;;;;3.17;1.52;;;3.30;99.90;;;;;;4970459;28;20479;-79
2022/04/04 02:46:31;;;;;;;2.72;1.50;;;3.30;99.90;;;;;;4989288;28;20074;-80
2022/04/04 02:48:57;;;;;;;3.97;1.40;;;3.40;99.90;;;;;;4989114;28;20131;-78
2022/04/04 02:51:26;;;;;;;5.90;1.80;;;3.30;99.90;;;;;;4971134;28;20027;-81
2022/04/04 02:53:53;;;;;;;2.70;1.70;;;3.40;99.90;;;;;;4988477;28;20023;-83
2022/04/04 02:56:33;;;;;;;1.95;1.60;;;3.40;99.90;;;;;;4988584;28;20391;-81
2022/04/04 02:59:02;;;;;;;11.20;1.60;;;3.40;99.90;;;;;;4989281;28;20119;-80
2022/04/04 03:01:30;;;;;;;4.30;1.75;;;3.40;99.90;;;;;;4988106;28;20022;-80
2022/04/04 03:03:58;;;;;;;2.17;1.27;;;3.40;99.90;;;;;;4970793;28;20106;-83
2022/04/04 03:06:26;;;;;;;3.38;2.00;;;3.40;99.90;;;;;;4971410;28;20054;-77
2022/04/04 03:08:55;;;;;;;2.72;1.27;;;3.40;99.90;;;;;;4988387;28;20023;-82
2022/04/04 03:11:21;;;;;;;3.67;1.70;;;3.40;99.90;;;;;;4970791;28;20058;-84
2022/04/04 03:13:51;;;;;;;17.88;1.98;;;3.40;99.90;;;;;;4988531;28;20390;-82
2022/04/04 03:16:20;;;;;;;2.08;1.30;;;3.40;99.90;;;;;;4971027;28;20030;-81
2022/04/04 03:18:49;;;;;;;2.78;1.35;;;3.40;99.90;;;;;;4970956;28;20019;-86
2022/04/04 03:21:21;;;;;;;2.35;1.38;;;3.50;99.90;;;;;;4971159;28;20022;-81
2022/04/04 03:23:48;;;;;;;5.13;2.03;;;3.50;99.90;;;;;;4970763;28;20059;-86
2022/04/04 03:26:15;;;;;;;3.92;2.00;;;3.50;99.90;;;;;;4970275;28;20055;-74
2022/04/04 03:28:42;;;;;;;3.80;1.67;;;3.50;99.90;;;;;;4970699;28;20023;-78
2022/04/04 03:31:10;;;;;;;6.80;2.22;;;3.50;99.90;;;;;;4970879;28;20042;-76
2022/04/04 03:33:40;;;;;;;4.75;1.80;;;3.50;99.90;;;;;;4987033;28;20045;-82
2022/04/04 03:36:08;;;;;;;6.22;1.92;;;3.50;99.90;;;;;;4970925;28;20026;-79
2022/04/04 03:38:41;;;;;;;4.60;2.17;;;3.50;99.90;;;;;;4986973;28;20027;-83
2022/04/04 03:41:10;;;;;;;4.65;2.28;;;3.50;99.90;;;;;;4970418;28;20027;-81
2022/04/04 03:43:44;;;;;;;5.57;2.33;;;3.60;99.90;;;;;;4971187;28;20057;-79
2022/04/04 03:46:15;;;;;;;4.85;2.13;;;3.60;99.90;;;;;;4970024;28;20031;-79
2022/04/04 03:48:43;;;;;;;4.40;2.30;;;3.60;99.90;;;;;;4987335;28;20058;-78
2022/04/04 03:51:15;;;;;;;6.35;2.25;;;3.60;99.90;;;;;;4971886;28;20027;-80
2022/04/04 03:53:43;;;;;;;5.07;2.35;;;3.60;99.90;;;;;;4974734;28;20021;-81
2022/04/04 03:56:10;;;;;;;7.63;3.00;;;3.60;99.90;;;;;;4987214;28;20031;-87
2022/04/04 03:58:39;;;;;;;12.20;2.80;;;3.60;99.90;;;;;;4970252;28;20053;-76
2022/04/04 04:01:12;;;;;;;5.68;2.58;;;3.70;99.90;;;;;;4987747;28;20027;-84
2022/04/04 04:03:47;;;;;;;9.00;3.22;;;3.70;99.90;;;;;;4971161;28;20046;-80
2022/04/04 04:06:16;;;;;;;7.07;3.22;;;3.70;99.90;;;;;;4987581;28;20079;-80
2022/04/04 04:08:46;;;;;;;6.47;3.53;;;3.60;99.90;;;;;;4970299;28;20031;-82
2022/04/04 04:11:21;;;;;;;8.38;3.38;;;3.70;99.90;;;;;;4970499;28;20023;-78
2022/04/04 04:13:47;;;;;;;8.77;3.38;;;3.70;99.90;;;;;;4987445;28;20130;-78
2022/04/04 04:16:13;;;;;;;8.23;3.53;;;3.70;99.90;;;;;;4987689;28;20071;-79
2022/04/04 04:18:41;;;;;;;5.97;3.22;;;3.70;99.90;;;;;;4970022;28;20046;-83
2022/04/04 04:21:11;;;;;;;8.98;3.28;;;3.70;99.90;;;;;;4969419;28;20035;-77
2022/04/04 04:23:47;;;;;;;8.00;3.15;;;3.80;99.90;;;;;;4970234;28;20057;-79
2022/04/04 04:26:23;;;;;;;6.25;2.95;;;3.80;99.90;;;;;;4967550;28;20406;-78
2022/04/04 04:28:55;;;;;;;7.65;3.00;;;3.80;99.90;;;;;;4968986;28;20054;-79
2022/04/04 04:31:21;;;;;;;6.15;3.33;;;3.80;99.90;;;;;;4966719;28;20030;-73
2022/04/04 04:33:51;;;;;;;5.35;2.78;;;3.80;99.90;;;;;;4967289;28;20027;-79
2022/04/04 04:36:17;;;;;;;8.52;4.35;;;3.80;99.90;;;;;;4950010;29;20050;-80
2022/04/04 04:38:43;;;;;;;8.15;4.57;;;3.90;99.90;;;;;;4950254;29;20024;-74
2022/04/04 04:41:09;;;;;;;9.65;4.00;;;3.90;99.90;;;;;;4967807;28;20039;-79
2022/04/04 04:43:35;;;;;;;7.15;2.80;;;3.90;99.90;;;;;;4950242;28;20477;-78
2022/04/04 04:46:02;;;;;;;8.63;3.63;;;3.90;99.90;;;;;;4949964;28;20046;-84
2022/04/04 04:48:29;;;;;;;12.30;4.55;;;3.90;99.90;;;;;;4950193;28;20217;-76
2022/04/04 04:50:55;;;;;;;8.57;4.28;;;3.90;99.90;;;;;;4965841;28;20028;-83
2022/04/04 04:53:27;;;;;;;7.65;3.60;;;3.90;99.90;;;;;;4967861;28;20035;-86
2022/04/04 04:55:56;;;;;;;15.00;4.95;;;3.90;99.90;;;;;;4949702;28;20027;-83
2022/04/04 04:58:21;;;;;;;16.48;4.93;;;4.00;99.90;;;;;;4950254;28;20397;-77
2022/04/04 05:00:47;;;;;;;12.60;5.50;;;4.00;99.90;;;;;;4967046;28;20051;-76
2022/04/04 05:03:25;;;;;;;12.10;4.25;;;4.00;99.90;;;;;;4967273;28;20039;-80
2022/04/04 05:05:52;;;;;;;13.48;4.68;;;4.00;99.90;;;;;;4950197;28;20038;-82
2022/04/04 05:08:18;;;;;;;7.55;4.28;;;4.10;99.90;;;;;;4950377;28;20038;-78
2022/04/04 05:10:46;;;;;;;6.13;3.53;;;4.10;99.90;;;;;;4954549;28;20034;-80
2022/04/04 05:13:18;;;;;;;21.10;5.60;;;4.10;99.90;;;;;;4984496;28;20022;-76
2022/04/04 05:15:45;;;;;;;16.90;6.28;;;4.10;99.90;;;;;;4960702;28;20054;-72
2022/04/04 05:18:11;;;;;;;10.70;4.10;;;4.10;99.90;;;;;;4984234;28;20035;-71
2022/04/04 05:20:37;;;;;;;9.45;4.43;;;4.10;99.90;;;;;;4986813;28;20051;-75
2022/04/04 05:23:06;;;;;;;10.77;5.32;;;4.10;99.90;;;;;;4986609;28;20039;-73
2022/04/04 05:25:32;;;;;;;11.07;5.13;;;4.10;99.90;;;;;;4972818;28;20027;-74
2022/04/04 05:27:58;;;;;;;9.90;5.43;;;4.10;99.90;;;;;;4979453;28;20058;-75
2022/04/04 05:30:24;;;;;;;9.00;4.07;;;4.10;99.90;;;;;;4982832;28;20041;-72
2022/04/04 05:32:49;;;;;;;11.13;4.22;;;4.10;99.90;;;;;;4984452;28;20027;-76
2022/04/04 05:35:17;;;;;;;8.23;3.55;;;4.10;99.90;;;;;;4983999;28;20033;-75
2022/04/04 05:37:45;;;;;;;8.80;4.55;;;4.00;99.90;;;;;;4959741;28;20439;-76
2022/04/04 05:40:11;;;;;;;21.63;5.85;;;3.90;99.90;;;;;;4964743;28;20094;-78
2022/04/04 05:42:36;;;;;;;14.95;4.55;;;3.90;99.90;;;;;;4975468;28;20059;-75
2022/04/04 05:45:04;;;;;;;12.95;5.38;;;3.90;99.90;;;;;;4973732;28;20487;-72
2022/04/04 05:47:30;;;;;;;13.70;6.03;;;3.80;99.90;;;;;;4948385;28;20034;-73
2022/04/04 05:49:56;;;;;;;10.38;4.32;;;3.80;99.90;;;;;;4965961;28;20499;-75
2022/04/04 05:52:25;;;;;;;8.32;4.32;;;3.70;99.90;;;;;;4963547;28;20023;-71
2022/04/04 05:54:54;;;;;;;14.88;6.60;;;3.70;99.90;;;;;;4984542;28;20490;-76
2022/04/04 05:57:31;;;;;;;12.95;4.97;;;3.60;99.90;;;;;;4966230;28;20035;-75
2022/04/04 05:59:57;;;;;;;11.45;6.28;;;3.60;99.90;;;;;;4971454;28;20112;-74
2022/04/04 06:02:24;;;;;;;10.60;4.75;;;3.50;99.90;;;;;;4978759;28;20383;-74
2022/04/04 06:04:50;;;;;;;17.75;7.00;;;3.50;99.90;;;;;;4983734;28;20035;-72
2022/04/04 06:07:17;;;;;;;15.23;5.93;;;3.50;99.90;;;;;;4983647;28;20057;-75
2022/04/04 06:09:43;;;;;;;14.13;6.05;;;3.50;99.90;;;;;;4978953;28;20031;-73
2022/04/04 06:12:10;;;;;;;12.90;6.43;;;3.50;99.90;;;;;;4978788;28;20019;-72
2022/04/04 06:14:37;;;;;;;14.27;6.10;;;3.40;99.90;;;;;;4981504;28;20086;-75
2022/04/04 06:17:06;;;;;;;11.20;5.28;;;3.40;99.90;;;;;;4976706;28;20039;-76
2022/04/04 06:19:36;;;;;;;13.48;5.10;;;3.40;99.90;;;;;;4978152;28;20125;-77
2022/04/04 06:22:06;;;;;;;11.77;5.72;;;3.30;99.90;;;;;;4982921;28;20073;-76
2022/04/04 06:24:33;;;;;;;12.73;5.00;;;3.30;99.90;;;;;;4966581;28;20431;-73
2022/04/04 06:26:59;;;;;;;15.48;6.72;;;3.20;99.90;;;;;;4965966;28;20046;-72
2022/04/04 06:29:24;;;;;;;19.95;7.32;;;3.30;99.90;;;;;;4985326;28;20023;-73
2022/04/04 06:31:51;;;;;;;12.20;5.95;;;3.20;99.90;;;;;;4984215;28;20038;-71
2022/04/04 06:34:18;;;;;;;14.30;6.03;;;3.20;99.90;;;;;;4977152;28;20023;-71
2022/04/04 06:36:46;;;;;;;12.40;5.97;;;3.20;99.90;;;;;;4957523;28;20031;-72
2022/04/04 06:39:13;;;;;;;11.15;5.32;;;3.20;99.90;;;;;;4976381;28;20027;-72
2022/04/04 06:41:41;;;;;;;10.95;5.50;;;3.20;99.90;;;;;;4976678;28;20065;-72
2022/04/04 06:44:08;;;;;;;16.45;8.00;;;3.20;99.90;;;;;;4978166;28;20062;-73
2022/04/04 06:46:37;;;;;;;17.38;7.20;;;3.10;99.90;;;;;;4969121;28;20067;-74
2022/04/04 06:49:08;;;;;;;17.77;7.95;;;3.10;99.90;;;;;;4966405;28;20119;-71
2022/04/04 06:51:34;;;;;;;15.25;7.20;;;3.10;99.90;;;;;;4985248;28;20519;-72
2022/04/04 06:54:05;;;;;;;19.40;8.13;;;3.10;99.90;;;;;;4980950;28;20034;-73
2022/04/04 06:56:37;;;;;;;23.88;8.70;;;3.00;99.90;;;;;;4975144;28;20141;-72
2022/04/04 06:59:04;;;;;;;22.15;7.75;;;3.00;99.90;;;;;;4972880;28;20094;-71
2022/04/04 07:01:31;;;;;;;13.57;6.65;;;3.00;99.90;;;;;;4958793;28;20117;-72
2022/04/04 07:03:58;;;;;;;19.02;8.32;;;3.00;99.90;;;;;;4984887;28;20043;-70
2022/04/04 07:06:24;;;;;;;17.13;6.97;;;3.00;99.90;;;;;;4984592;28;20034;-71
2022/04/04 07:08:50;;;;;;;18.08;8.30;;;3.00;99.90;;;;;;4985458;28;20046;-70
2022/04/04 07:11:16;;;;;;;23.92;10.23;;;3.00;99.90;;;;;;4968621;28;20026;-73
2022/04/04 07:13:44;;;;;;;17.83;8.55;;;3.00;99.90;;;;;;4976123;28;20063;-73
2022/04/04 07:16:10;;;;;;;23.20;10.18;;;3.00;99.90;;;;;;4969318;28;20039;-71
2022/04/04 07:18:36;;;;;;;27.55;10.43;;;3.00;99.90;;;;;;4987379;28;20038;-73
2022/04/04 07:21:01;;;;;;;21.10;9.35;;;3.00;99.90;;;;;;4986430;28;20035;-73
2022/04/04 07:23:27;;;;;;;21.98;10.68;;;3.00;99.90;;;;;;4982490;28;20047;-70
2022/04/04 07:25:53;;;;;;;24.55;9.98;;;3.00;99.90;;;;;;4979116;28;20022;-71
2022/04/04 07:28:20;;;;;;;22.83;10.02;;;3.00;99.90;;;;;;4988518;28;20039;-73
2022/04/04 07:30:46;;;;;;;27.70;11.23;;;3.00;99.90;;;;;;4966669;28;20031;-71
2022/04/04 07:33:15;;;;;;;22.52;11.48;;;3.00;99.90;;;;;;4969515;28;20034;-73
2022/04/04 07:35:42;;;;;;;23.52;11.55;;;3.00;99.90;;;;;;4974584;28;20083;-72
2022/04/04 07:38:11;;;;;;;23.55;10.27;;;3.00;99.90;;;;;;4975353;28;20069;-74
2022/04/04 07:40:38;;;;;;;32.05;12.25;;;3.00;99.90;;;;;;4969079;28;20439;-71
2022/04/04 07:43:04;;;;;;;27.85;9.98;;;3.00;99.90;;;;;;4968552;28;20039;-71
2022/04/04 07:45:31;;;;;;;15.48;7.15;;;3.10;99.90;;;;;;4968060;28;20030;-71
2022/04/04 07:47:58;;;;;;;21.55;9.77;;;3.00;99.90;;;;;;4968588;28;20574;-72
2022/04/04 07:50:23;;;;;;;25.67;11.18;;;3.00;99.90;;;;;;4951349;28;20094;-74
2022/04/04 07:52:57;;;;;;;29.52;13.27;;;3.10;99.90;;;;;;4977562;28;20038;-73
2022/04/04 07:55:23;;;;;;;25.25;8.25;;;3.10;99.90;;;;;;4983352;28;20042;-68
2022/04/04 07:57:48;;;;;;;23.45;10.52;;;3.10;99.90;;;;;;4978122;28;20027;-72
2022/04/04 08:00:17;;;;;;;20.50;9.43;;;3.20;99.90;;;;;;4976015;28;20095;-74
2022/04/04 08:02:44;;;;;;;23.55;10.45;;;3.20;99.90;;;;;;4982464;28;20062;-73
2022/04/04 08:05:11;;;;;;;18.13;7.93;;;3.20;99.90;;;;;;4969883;28;20050;-73
2022/04/04 08:07:37;;;;;;;22.38;9.27;;;3.20;99.90;;;;;;4987984;28;20031;-73
2022/04/04 08:10:04;;;;;;;25.55;11.85;;;3.20;99.90;;;;;;4979164;28;20062;-72
2022/04/04 08:12:31;;;;;;;21.52;10.80;;;3.20;99.90;;;;;;4975124;28;20034;-73
2022/04/04 08:14:57;;;;;;;22.60;9.82;;;3.20;99.90;;;;;;4954672;28;20031;-72
2022/04/04 08:17:23;;;;;;;18.80;9.15;;;3.30;99.90;;;;;;4977624;28;20045;-72
2022/04/04 08:19:50;;;;;;;25.88;9.60;;;3.30;99.90;;;;;;4976586;28;20043;-74
2022/04/04 08:22:17;;;;;;;20.55;10.15;;;3.30;99.90;;;;;;4984615;28;20058;-72
2022/04/04 08:24:43;;;;;;;18.65;8.70;;;3.30;99.90;;;;;;4983452;28;20071;-72
2022/04/04 08:27:13;;;;;;;27.92;10.57;;;3.40;99.90;;;;;;4980226;28;20107;-72
2022/04/04 08:29:42;;;;;;;13.30;5.57;;;3.40;99.90;;;;;;4968059;28;20050;-70
2022/04/04 08:32:09;;;;;;;17.85;6.57;;;3.50;99.90;;;;;;4978837;28;20097;-73
2022/04/04 08:34:34;;;;;;;16.33;8.63;;;3.60;99.90;;;;;;4986704;28;20054;-71
2022/04/04 08:37:01;;;;;;;19.42;7.57;;;3.60;99.90;;;;;;4981084;28;20038;-74
2022/04/04 08:39:26;;;;;;;15.02;6.63;;;3.60;99.90;;;;;;4986665;28;20035;-72
2022/04/04 08:41:56;;;;;;;15.45;7.18;;;3.70;99.90;;;;;;4986855;28;20030;-71
2022/04/04 08:44:22;;;;;;;19.67;7.85;;;3.70;99.90;;;;;;4981370;28;20095;-70
2022/04/04 08:46:52;;;;;;;14.75;5.75;;;3.70;99.90;;;;;;4984571;28;20038;-75
2022/04/04 08:49:19;;;;;;;12.75;5.78;;;3.80;99.90;;;;;;4984589;28;20106;-75
2022/04/04 08:51:48;;;;;;;13.40;5.53;;;3.80;99.90;;;;;;4976752;28;20552;-76
2022/04/04 08:54:14;;;;;;;14.88;6.50;;;3.80;99.90;;;;;;4968976;28;20027;-73
2022/04/04 08:56:42;;;;;;;20.88;6.40;;;3.80;99.90;;;;;;4977352;28;20038;-73
2022/04/04 08:59:10;;;;;;;9.43;5.18;;;3.80;99.90;;;;;;4969166;28;20035;-71
2022/04/04 09:01:37;;;;;;;13.50;6.63;;;3.80;99.90;;;;;;4986795;28;20030;-71
2022/04/04 09:04:03;;;;;;;17.77;6.88;;;3.80;99.90;;;;;;4980675;28;20035;-74
2022/04/04 09:06:29;;;;;;;14.02;6.85;;;3.80;99.90;;;;;;4984970;28;20042;-71
2022/04/04 09:08:57;;;;;;;17.05;7.78;;;3.80;99.90;;;;;;4974268;28;20030;-74
2022/04/04 09:11:24;;;;;;;14.20;6.82;;;3.80;99.90;;;;;;4976854;28;20106;-73
2022/04/04 09:14:07;;;;;;;16.27;7.60;;;3.80;99.90;;;;;;4959548;28;20483;-73
2022/04/04 09:16:33;;;;;;;28.13;7.13;;;3.80;99.90;;;;;;4974248;28;20023;-74
2022/04/04 09:18:59;;;;;;;12.93;6.55;;;3.80;99.90;;;;;;4975537;28;20015;-75
2022/04/04 09:21:25;;;;;;;15.50;7.93;;;3.80;99.90;;;;;;4979159;28;20079;-73
2022/04/04 09:23:55;;;;;;;13.82;6.30;;;3.80;99.90;;;;;;4985149;28;20034;-74
2022/04/04 09:26:45;;;;;;;20.60;8.40;;;3.80;99.90;;;;;;4975759;28;20027;-74
2022/04/04 09:29:24;;;;;;;12.52;7.00;;;3.80;99.90;;;;;;4985184;28;20035;-73
2022/04/04 09:31:54;;;;;;;19.42;7.47;;;3.80;99.90;;;;;;4960755;28;20471;-74
2022/04/04 09:34:20;;;;;;;14.18;6.85;;;3.90;99.90;;;;;;4981315;28;20049;-74
2022/04/04 09:36:47;;;;;;;16.83;7.93;;;3.90;99.90;;;;;;4978449;28;20045;-75
2022/04/04 09:39:14;;;;;;;12.63;6.35;;;3.90;99.90;;;;;;4982450;28;20027;-75
2022/04/04 09:41:43;;;;;;;16.92;8.18;;;3.90;99.90;;;;;;4968365;28;20030;-75
2022/04/04 09:44:11;;;;;;;26.55;10.48;;;3.90;99.90;;;;;;4966290;28;20035;-73
2022/04/04 09:46:42;;;;;;;12.93;6.35;;;4.00;99.90;;;;;;4967870;28;20046;-76
2022/04/04 09:49:16;;;;;;;17.23;7.63;;;4.00;99.90;;;;;;4983617;28;20058;-73
2022/04/04 09:51:44;;;;;;;17.77;8.35;;;4.00;99.90;;;;;;4970972;28;20534;-73
2022/04/04 09:54:14;;;;;;;16.65;7.80;;;4.00;99.90;;;;;;4969848;28;20431;-74
2022/04/04 09:56:42;;;;;;;14.00;6.97;;;4.00;99.90;;;;;;4953826;28;20066;-72
2022/04/04 09:59:12;;;;;;;14.10;6.35;;;4.00;99.90;;;;;;4978969;28;20027;-71
2022/04/04 10:01:40;;;;;;;15.30;7.22;;;4.00;99.90;;;;;;4970866;28;20035;-73
2022/04/04 10:04:12;;;;;;;10.75;6.53;;;4.10;99.90;;;;;;4968677;28;20043;-72
2022/04/04 10:06:47;;;;;;;13.40;6.53;;;4.00;99.90;;;;;;4968475;28;20105;-73
2022/04/04 10:09:13;;;;;;;14.63;7.35;;;4.20;99.90;;;;;;4985297;28;20099;-76
2022/04/04 10:11:40;;;;;;;14.77;6.75;;;4.10;99.90;;;;;;4967981;28;20058;-71
2022/04/04 10:14:06;;;;;;;13.15;7.30;;;4.10;99.90;;;;;;4980169;28;20558;-73
2022/04/04 10:16:33;;;;;;;17.92;8.70;;;4.10;99.90;;;;;;4980279;28;20059;-72
2022/04/04 10:18:59;;;;;;;19.88;8.18;;;4.10;99.90;;;;;;4988716;28;20034;-72
2022/04/04 10:21:26;;;;;;;32.88;7.78;;;4.20;99.90;;;;;;4968266;28;20053;-73
2022/04/04 10:23:55;;;;;;;19.25;8.73;;;4.20;99.90;;;;;;4985084;28;20043;-72
2022/04/04 10:26:30;;;;;;;15.43;8.05;;;4.20;99.90;;;;;;4985645;28;20095;-73
2022/04/04 10:29:10;;;;;;;19.67;8.48;;;4.20;99.90;;;;;;4979052;28;20073;-76
2022/04/04 10:31:53;;;;;;;15.02;6.80;;;4.20;99.90;;;;;;4968316;28;20031;-74
2022/04/04 10:34:24;;;;;;;16.25;8.18;;;4.20;99.90;;;;;;4966532;28;20035;-72
2022/04/04 10:36:56;;;;;;;16.55;7.65;;;4.20;99.90;;;;;;4965859;28;20092;-75
2022/04/04 10:39:52;;;;;;;12.38;6.70;;;4.30;99.90;;;;;;4966143;28;20098;-73
2022/04/04 10:42:36;;;;;;;13.00;6.63;;;4.30;99.90;;;;;;4953453;28;20047;-72
2022/04/04 10:45:10;;;;;;;15.45;7.32;;;4.20;99.90;;;;;;4952582;29;20047;-72
2022/04/04 10:47:44;;;;;;;14.13;7.63;;;4.30;99.90;;;;;;4980587;28;20053;-72
2022/04/04 10:50:30;;;;;;;17.35;8.70;;;4.30;99.90;;;;;;4989075;28;20031;-71
2022/04/04 10:52:59;;;;;;;20.15;8.77;;;4.40;99.90;;;;;;4971856;28;20030;-73
2022/04/04 10:55:36;;;;;;;18.75;9.40;;;4.40;99.90;;;;;;4956231;28;20027;-72
2022/04/04 10:58:13;;;;;;;17.35;8.88;;;4.40;99.90;;;;;;4941369;28;20059;-74
2022/04/04 11:01:03;;;;;;;17.77;8.18;;;4.50;99.90;;;;;;4958777;29;20039;-72
2022/04/04 11:03:31;;;;;;;17.63;8.43;;;4.50;99.90;;;;;;4958951;28;20059;-72
2022/04/04 11:09:00;;;;;;;16.45;6.47;;;4.50;99.90;;;;;;4958484;28;20039;-72
2022/04/04 11:12:00;;;;;;;15.43;7.00;;;4.50;99.90;;;;;;4941400;29;20039;-71
2022/04/04 11:14:28;;;;;;;20.42;8.20;;;4.50;99.90;;;;;;4962156;28;20097;-75
2022/04/04 11:17:07;;;;;;;14.05;6.72;;;4.70;99.90;;;;;;4956598;28;20455;-74
2022/04/04 11:20:21;;;;;;;22.67;8.07;;;4.60;99.90;;;;;;4943295;28;20058;-71
2022/04/04 11:22:52;;;;;;;17.55;8.43;;;4.60;99.90;;;;;;4958567;28;20027;-72
2022/04/04 11:25:21;;;;;;;15.50;7.53;;;4.70;99.90;;;;;;4941199;29;20031;-73
2022/04/04 11:27:48;;;;;;;14.57;8.38;;;4.70;99.90;;;;;;4961318;28;20043;-72
2022/04/04 11:30:17;;;;;;;16.05;9.15;;;4.70;99.90;;;;;;4967587;28;20027;-71
2022/04/04 11:32:49;;;;;;;27.95;7.53;;;4.60;99.90;;;;;;4978230;28;20038;-71
2022/04/04 11:35:20;;;;;;;16.95;6.70;;;4.70;99.90;;;;;;4976435;28;20101;-73
2022/04/04 11:38:00;;;;;;;13.90;7.13;;;4.70;99.90;;;;;;4976100;28;20035;-74
2022/04/04 11:40:37;;;;;;;20.73;8.25;;;4.80;99.90;;;;;;4976424;28;20030;-71
2022/04/04 11:43:11;;;;;;;15.10;7.20;;;4.70;99.90;;;;;;4958717;28;20408;-73
2022/04/04 11:45:40;;;;;;;10.07;5.63;;;4.80;99.90;;;;;;4976539;28;20039;-73
2022/04/04 11:48:13;;;;;;;14.30;7.00;;;4.80;99.90;;;;;;4977908;28;20057;-73
2022/04/04 11:50:42;;;;;;;12.55;5.30;;;4.80;99.90;;;;;;4978255;28;20042;-71
2022/04/04 11:53:38;;;;;;;18.77;4.85;;;4.80;99.90;;;;;;4977129;28;20074;-76
2022/04/04 11:56:10;;;;;;;14.52;6.18;;;4.90;99.90;;;;;;4973406;28;20046;-72
2022/04/04 11:58:47;;;;;;;14.50;6.55;;;4.90;99.90;;;;;;4977708;28;20027;-74
2022/04/04 12:01:12;;;;;;;12.27;5.22;;;4.90;99.90;;;;;;4966466;28;20035;-70
2022/04/04 12:03:43;;;;;;;9.90;4.78;;;4.90;99.90;;;;;;4976127;28;20043;-71
2022/04/04 12:06:09;;;;;;;9.38;5.05;;;4.90;99.90;;;;;;4978815;28;20031;-72
2022/04/04 12:08:42;;;;;;;7.38;4.65;;;4.90;99.90;;;;;;4976255;28;20090;-72
2022/04/04 12:11:10;;;;;;;9.00;4.28;;;4.90;99.90;;;;;;4960172;28;20075;-72
2022/04/04 12:13:49;;;;;;;7.30;3.40;;;4.90;99.90;;;;;;4977515;28;20119;-73
2022/04/04 12:16:16;;;;;;;8.82;4.68;;;5.00;99.90;;;;;;4975845;28;20043;-74
2022/04/04 12:18:43;;;;;;;10.43;4.70;;;5.00;99.90;;;;;;4975072;28;20027;-75
2022/04/04 12:21:11;;;;;;;13.55;5.88;;;5.00;99.90;;;;;;4974890;28;20126;-73
2022/04/04 12:26:28;;;;;;;7.63;3.83;;;5.10;99.90;;;;;;4975587;28;20086;-74
2022/04/04 12:28:55;;;;;;;12.55;4.95;;;5.10;99.90;;;;;;4974953;28;20011;-70
2022/04/04 12:31:21;;;;;;;9.98;4.65;;;5.10;99.90;;;;;;4974373;28;20260;-71
2022/04/04 12:34:08;;;;;;;12.73;4.70;;;5.10;99.90;;;;;;4976623;28;20090;-75
2022/04/04 12:36:39;;;;;;;9.85;4.20;;;5.20;99.90;;;;;;4974454;28;20054;-76
2022/04/04 12:39:08;;;;;;;7.25;4.03;;;5.20;99.90;;;;;;4975313;28;20035;-75
2022/04/04 12:41:51;;;;;;;9.32;4.43;;;5.20;99.90;;;;;;4958864;28;20416;-72
2022/04/04 12:44:25;;;;;;;7.45;3.58;;;5.20;99.90;;;;;;4975416;28;20098;-75
2022/04/04 12:47:04;;;;;;;7.63;3.83;;;5.20;99.90;;;;;;4956944;28;20488;-76
2022/04/04 12:49:31;;;;;;;5.72;3.33;;;5.20;99.90;;;;;;4957530;28;20078;-72
2022/04/04 12:52:00;;;;;;;6.15;3.38;;;5.20;99.90;;;;;;4975133;28;20038;-73
2022/04/04 12:54:34;;;;;;;7.65;3.15;;;5.20;99.90;;;;;;4957934;28;20058;-71
2022/04/04 12:57:03;;;;;;;6.88;3.85;;;5.30;99.90;;;;;;4976655;28;20034;-73
2022/04/04 12:59:30;;;;;;;15.68;3.97;;;5.40;99.90;;;;;;4958025;28;20038;-71
2022/04/04 13:02:11;;;;;;;6.68;3.25;;;5.40;99.90;;;;;;4963156;28;20391;-73
2022/04/04 13:04:39;;;;;;;6.28;3.28;;;5.30;99.90;;;;;;4974671;28;20098;-72
2022/04/04 13:07:18;;;;;;;7.00;3.00;;;5.30;99.90;;;;;;4957356;28;20030;-73
2022/04/04 13:09:52;;;;;;;7.43;3.03;;;5.30;99.90;;;;;;4973736;28;20019;-72